Time;durP1;ratioP1;P1;durP2;ratioP2;P2;SDS_P1;SDS_P2;PMS_P1;PMS_P2;Temp;Humidity;BMP_temperature;BMP_pressure;BME280_temperature;BME280_humidity;BME280_pressure;Samples;Min_cycle;Max_cycle;Signal;HPM_P1;HPM_P2
2021/01/31 00:01:09;;;;;;;48.35;23.42;;;10.60;99.90;;;;;;4994442;28;20045;-83
2021/01/31 00:03:35;;;;;;;38.45;23.70;;;10.60;99.90;;;;;;4993742;28;20041;-85
2021/01/31 00:06:03;;;;;;;33.30;20.45;;;10.60;99.90;;;;;;4993604;28;20471;-81
2021/01/31 00:08:30;;;;;;;41.65;21.42;;;10.60;99.90;;;;;;4994147;28;20033;-82
2021/01/31 00:10:57;;;;;;;37.65;21.15;;;10.70;99.90;;;;;;4994323;28;20562;-85
2021/01/31 00:13:25;;;;;;;35.30;19.90;;;10.70;99.90;;;;;;4993539;28;20398;-83
2021/01/31 00:15:52;;;;;;;35.90;16.52;;;10.70;99.90;;;;;;4993112;28;20022;-82
2021/01/31 00:18:22;;;;;;;30.25;18.33;;;10.70;99.90;;;;;;4994863;28;20149;-84
2021/01/31 00:20:51;;;;;;;31.48;16.33;;;10.70;99.90;;;;;;4994107;28;20490;-81
2021/01/31 00:23:17;;;;;;;29.17;16.55;;;10.70;99.90;;;;;;4993384;28;20090;-84
2021/01/31 00:25:43;;;;;;;35.40;16.95;;;10.80;99.90;;;;;;4994232;28;20018;-85
2021/01/31 00:28:17;;;;;;;28.17;14.82;;;10.80;99.90;;;;;;4993967;28;20037;-82
2021/01/31 00:30:46;;;;;;;29.90;16.67;;;10.80;99.90;;;;;;4989959;28;20031;-83
2021/01/31 00:33:29;;;;;;;21.70;13.05;;;10.80;99.90;;;;;;4993400;28;20547;-84
2021/01/31 00:35:59;;;;;;;26.85;11.32;;;10.80;99.90;;;;;;4993100;28;20026;-84
2021/01/31 00:38:28;;;;;;;20.60;10.25;;;10.80;99.90;;;;;;4994347;28;20027;-84
2021/01/31 00:40:58;;;;;;;25.58;10.88;;;10.80;99.90;;;;;;4993983;28;20027;-84
2021/01/31 00:43:33;;;;;;;27.45;11.13;;;10.80;99.90;;;;;;4993516;28;20026;-84
2021/01/31 00:46:13;;;;;;;27.23;11.10;;;10.80;99.90;;;;;;4993717;28;20034;-82
2021/01/31 00:49:23;;;;;;;20.23;9.98;;;10.80;99.90;;;;;;4993693;28;20022;-83
2021/01/31 00:52:14;;;;;;;26.55;12.02;;;10.70;99.90;;;;;;4930259;29;20130;-85
2021/01/31 00:54:46;;;;;;;25.00;10.57;;;10.80;99.90;;;;;;4925593;29;20123;-84
2021/01/31 00:57:18;;;;;;;21.42;10.85;;;10.80;99.90;;;;;;4986028;28;20045;-85
2021/01/31 01:00:19;;;;;;;;;;;;;;;;;;;;;
2021/01/31 01:02:49;;;;;;;22.80;11.13;;;10.80;99.90;;;;;;4991970;28;20031;-83
2021/01/31 01:05:21;;;;;;;19.85;9.38;;;10.80;99.90;;;;;;4985658;28;20033;-85
2021/01/31 01:07:47;;;;;;;18.95;9.25;;;10.80;99.90;;;;;;4992777;28;20036;-85
2021/01/31 01:10:17;;;;;;;21.23;9.15;;;10.80;99.90;;;;;;4993494;28;20093;-84
2021/01/31 01:12:52;;;;;;;17.98;9.35;;;10.80;99.90;;;;;;4993109;28;20053;-82
2021/01/31 01:15:21;;;;;;;17.75;8.65;;;10.80;99.90;;;;;;4993021;28;20031;-84
2021/01/31 01:17:47;;;;;;;16.55;9.07;;;10.80;99.90;;;;;;4990544;28;20444;-83
2021/01/31 01:20:19;;;;;;;20.60;8.70;;;10.80;99.90;;;;;;4993500;28;20085;-83
2021/01/31 01:22:45;;;;;;;;;;;10.80;99.90;;;;;;4993334;28;20038;-83
2021/01/31 01:25:16;;;;;;;19.15;8.63;;;10.80;99.90;;;;;;4993073;28;19953;-84
2021/01/31 01:27:46;;;;;;;13.65;7.00;;;10.80;99.90;;;;;;4992830;28;20030;-83
2021/01/31 01:30:19;;;;;;;18.58;8.38;;;10.80;99.90;;;;;;4975842;28;20030;-85
2021/01/31 01:32:54;;;;;;;17.20;7.22;;;10.70;99.90;;;;;;4991607;28;20026;-83
2021/01/31 01:35:21;;;;;;;16.27;6.45;;;10.70;99.90;;;;;;4992346;28;20104;-85
2021/01/31 01:37:48;;;;;;;15.23;6.90;;;10.70;99.90;;;;;;4992745;28;20041;-85
2021/01/31 01:41:09;;;;;;;14.23;6.57;;;10.70;99.90;;;;;;4992832;28;20041;-84
2021/01/31 01:43:32;;;;;;;14.10;6.18;;;10.70;99.90;;;;;;4986426;28;20542;-86
2021/01/31 01:46:19;;;;;;;12.10;5.55;;;10.70;99.90;;;;;;4992334;28;20030;-82
2021/01/31 01:49:01;;;;;;;11.50;6.30;;;10.70;99.90;;;;;;4993082;28;20033;-87
2021/01/31 01:51:35;;;;;;;10.13;5.30;;;10.70;99.90;;;;;;4992365;28;20026;-82
2021/01/31 01:58:16;;;;;;;9.73;4.60;;;10.70;99.90;;;;;;4984570;28;20038;-83
2021/01/31 02:00:47;;;;;;;9.95;4.75;;;10.70;99.90;;;;;;4983965;28;20156;-82
2021/01/31 02:04:16;;;;;;;14.30;5.60;;;10.70;99.90;;;;;;4991652;28;20026;-83
2021/01/31 02:06:41;;;;;;;7.43;3.50;;;10.80;99.90;;;;;;4987837;28;20446;-81
2021/01/31 02:09:07;;;;;;;4.95;2.95;;;10.80;99.90;;;;;;4991706;28;20027;-82
2021/01/31 02:11:34;;;;;;;12.23;3.08;;;10.80;99.90;;;;;;4991366;28;20026;-84
2021/01/31 02:14:06;;;;;;;7.65;3.33;;;10.80;99.90;;;;;;4991233;28;20076;-82
2021/01/31 02:16:55;;;;;;;7.07;3.22;;;10.70;99.90;;;;;;4991971;28;20384;-82
2021/01/31 02:19:27;;;;;;;8.55;3.03;;;10.70;99.90;;;;;;4990943;28;20082;-83
2021/01/31 02:22:25;;;;;;;5.13;2.80;;;10.70;99.90;;;;;;4991353;28;20054;-83
2021/01/31 02:25:09;;;;;;;8.55;3.38;;;10.70;99.90;;;;;;4980857;28;20070;-84
2021/01/31 02:27:50;;;;;;;5.53;2.30;;;10.70;99.90;;;;;;4989221;28;20052;-81
2021/01/31 02:30:50;;;;;;;4.35;2.65;;;10.70;99.90;;;;;;4991603;28;20030;-85
2021/01/31 02:33:49;;;;;;;3.22;2.10;;;10.70;99.90;;;;;;4983816;28;20197;-84
2021/01/31 02:36:24;;;;;;;8.20;3.03;;;10.80;99.90;;;;;;4991755;28;20030;-85
2021/01/31 02:38:59;;;;;;;4.60;2.10;;;10.80;99.90;;;;;;4991630;28;20033;-84
2021/01/31 02:41:31;;;;;;;3.45;2.25;;;10.80;99.90;;;;;;4989882;28;20064;-83
2021/01/31 02:43:59;;;;;;;3.97;2.35;;;10.80;99.90;;;;;;4991573;28;20027;-83
2021/01/31 02:46:50;;;;;;;4.45;2.40;;;10.80;99.90;;;;;;4991113;28;20089;-82
2021/01/31 02:49:25;;;;;;;3.57;2.20;;;10.80;99.90;;;;;;4984958;28;20109;-85
2021/01/31 02:52:16;;;;;;;2.35;1.95;;;10.80;99.90;;;;;;4992093;28;20081;-86
2021/01/31 02:55:13;;;;;;;4.53;2.28;;;10.90;99.90;;;;;;4987446;28;20145;-85
2021/01/31 02:58:18;;;;;;;3.78;2.38;;;10.80;99.90;;;;;;4991479;28;20030;-84
2021/01/31 03:00:52;;;;;;;6.38;2.22;;;10.80;99.90;;;;;;4991238;28;20101;-83
2021/01/31 03:03:44;;;;;;;6.68;2.25;;;10.80;99.90;;;;;;4991779;28;20026;-83
2021/01/31 03:06:14;;;;;;;5.15;2.40;;;10.90;99.90;;;;;;4991151;28;20100;-82
2021/01/31 03:08:48;;;;;;;3.40;2.00;;;10.90;99.90;;;;;;4991199;28;20034;-82
2021/01/31 03:12:04;;;;;;;;;;;;;;;;;;;;;
2021/01/31 03:14:55;;;;;;;3.85;1.83;;;10.90;99.90;;;;;;4988239;28;20034;-84
2021/01/31 03:17:41;;;;;;;6.57;2.00;;;10.90;99.90;;;;;;4990593;28;20483;-82
2021/01/31 03:20:11;;;;;;;3.63;1.60;;;10.90;99.90;;;;;;4990670;28;20030;-82
2021/01/31 03:22:48;;;;;;;2.10;1.63;;;11.00;99.90;;;;;;4989306;28;20101;-81
2021/01/31 03:25:21;;;;;;;3.28;2.30;;;11.00;99.90;;;;;;4974008;28;20023;-82
2021/01/31 03:27:58;;;;;;;8.20;2.55;;;11.00;99.90;;;;;;4991182;28;20034;-81
2021/01/31 03:30:29;;;;;;;7.90;2.50;;;11.10;99.90;;;;;;4973996;28;20066;-83
2021/01/31 03:33:25;;;;;;;3.58;2.50;;;11.10;99.90;;;;;;4994548;28;20050;-83
2021/01/31 03:35:53;;;;;;;5.05;3.28;;;11.10;99.90;;;;;;4992995;28;20046;-83
2021/01/31 03:39:22;;;;;;;5.88;3.22;;;11.10;99.90;;;;;;4974655;28;20483;-82
2021/01/31 03:41:48;;;;;;;9.68;3.25;;;11.10;99.90;;;;;;4954330;28;20197;-85
2021/01/31 03:44:15;;;;;;;6.38;2.75;;;11.00;99.90;;;;;;4993058;28;20019;-82
2021/01/31 03:46:44;;;;;;;5.63;2.78;;;11.00;99.90;;;;;;4992455;28;20030;-85
2021/01/31 03:49:14;;;;;;;9.15;2.80;;;10.90;99.90;;;;;;4992448;28;20022;-82
2021/01/31 03:51:40;;;;;;;9.02;4.28;;;11.00;99.90;;;;;;4993460;28;20022;-86
2021/01/31 03:54:07;;;;;;;5.85;4.07;;;11.00;99.90;;;;;;4994801;28;20057;-82
2021/01/31 03:56:38;;;;;;;5.63;3.90;;;11.00;99.90;;;;;;4993803;28;20026;-82
2021/01/31 03:59:06;;;;;;;8.43;5.30;;;11.10;99.90;;;;;;4994376;28;20030;-82
2021/01/31 04:01:36;;;;;;;6.15;4.13;;;11.00;99.90;;;;;;4994012;28;20451;-83
2021/01/31 04:04:32;;;;;;;9.00;5.72;;;11.00;99.90;;;;;;4976740;28;20027;-81
2021/01/31 04:07:01;;;;;;;4.32;3.35;;;10.90;99.90;;;;;;4988393;28;20355;-82
2021/01/31 04:09:31;;;;;;;6.63;3.05;;;10.90;99.90;;;;;;4993863;28;20058;-84
2021/01/31 04:12:03;;;;;;;5.07;3.17;;;10.90;99.90;;;;;;4994008;28;20082;-83
2021/01/31 04:14:39;;;;;;;;;;;10.80;99.90;;;;;;4976844;28;20121;-81
2021/01/31 04:17:05;;;;;;;4.43;3.17;;;10.80;99.90;;;;;;4993185;28;19909;-85
2021/01/31 04:19:30;;;;;;;3.83;2.42;;;10.80;99.90;;;;;;4993771;28;20057;-83
2021/01/31 04:21:56;;;;;;;3.67;2.72;;;10.80;99.90;;;;;;4992555;28;20384;-84
2021/01/31 04:24:22;;;;;;;8.63;2.80;;;10.90;99.90;;;;;;4993260;28;20162;-83
2021/01/31 04:26:47;;;;;;;16.17;2.97;;;11.00;99.90;;;;;;4993753;28;20041;-83
2021/01/31 04:29:13;;;;;;;7.60;3.42;;;11.00;99.90;;;;;;4993847;28;20022;-81
2021/01/31 04:31:39;;;;;;;7.55;2.40;;;11.10;99.90;;;;;;4975808;28;20046;-83
2021/01/31 04:34:05;;;;;;;5.80;2.30;;;11.10;99.90;;;;;;4993525;28;20089;-84
2021/01/31 04:36:30;;;;;;;10.18;3.05;;;11.10;99.90;;;;;;4993689;28;20026;-83
2021/01/31 04:38:57;;;;;;;5.63;2.20;;;11.10;99.90;;;;;;4993140;28;20030;-81
2021/01/31 04:41:29;;;;;;;4.45;1.85;;;11.10;99.90;;;;;;4991882;28;20042;-79
2021/01/31 04:43:55;;;;;;;8.98;2.30;;;11.10;99.90;;;;;;4992253;28;20387;-79
2021/01/31 04:46:51;;;;;;;3.90;2.00;;;11.10;99.90;;;;;;4993718;28;20105;-83
2021/01/31 04:49:45;;;;;;;2.80;1.95;;;11.10;99.90;;;;;;4978794;28;20479;-81
2021/01/31 04:52:35;;;;;;;2.30;1.50;;;11.10;99.90;;;;;;4991266;28;20026;-82
2021/01/31 04:55:28;;;;;;;2.00;1.75;;;11.00;99.90;;;;;;4986726;28;20390;-78
2021/01/31 04:58:03;;;;;;;1.98;1.42;;;10.90;99.90;;;;;;4992904;28;20029;-80
2021/01/31 05:00:31;;;;;;;1.90;1.23;;;10.80;99.90;;;;;;4992299;28;20026;-84
2021/01/31 05:03:01;;;;;;;1.50;1.40;;;10.80;99.90;;;;;;4992466;28;20031;-83
2021/01/31 05:05:36;;;;;;;1.85;1.60;;;10.70;99.90;;;;;;4992944;28;20026;-82
2021/01/31 05:08:07;;;;;;;3.15;2.15;;;10.60;99.90;;;;;;4992806;28;20485;-79
2021/01/31 05:10:33;;;;;;;6.30;1.77;;;10.60;99.90;;;;;;4974821;28;20038;-80
2021/01/31 05:13:17;;;;;;;7.07;2.00;;;10.60;99.90;;;;;;4992731;28;20026;-80
2021/01/31 05:16:06;;;;;;;2.08;1.70;;;10.60;99.90;;;;;;4992887;28;20121;-79
2021/01/31 05:18:36;;;;;;;4.65;1.98;;;10.80;99.90;;;;;;4988241;28;20022;-80
2021/01/31 05:21:06;;;;;;;5.25;2.17;;;10.90;99.90;;;;;;4992299;28;20081;-85
2021/01/31 05:23:37;;;;;;;5.63;2.20;;;11.00;99.90;;;;;;4992092;28;20065;-79
2021/01/31 05:26:04;;;;;;;5.20;1.95;;;11.10;99.90;;;;;;4992718;28;20026;-82
2021/01/31 05:28:33;;;;;;;5.82;2.10;;;11.20;99.90;;;;;;4992831;28;20022;-83
2021/01/31 05:30:59;;;;;;;4.53;1.90;;;11.30;99.90;;;;;;4992295;28;20018;-80
2021/01/31 05:33:25;;;;;;;2.50;1.80;;;11.30;99.90;;;;;;4992051;28;20542;-79
2021/01/31 05:35:52;;;;;;;2.45;1.90;;;11.30;99.90;;;;;;4991800;28;20018;-78
2021/01/31 05:38:38;;;;;;;6.70;1.83;;;11.30;99.90;;;;;;4991479;28;20081;-79
2021/01/31 05:41:23;;;;;;;3.15;1.77;;;11.30;99.90;;;;;;4990305;28;20418;-81
2021/01/31 05:44:04;;;;;;;4.47;2.13;;;11.30;99.90;;;;;;4986870;28;20049;-81
2021/01/31 05:46:39;;;;;;;2.65;1.30;;;11.20;99.90;;;;;;4983323;28;20065;-81
2021/01/31 05:49:09;;;;;;;2.92;1.63;;;11.20;99.90;;;;;;4992087;28;20026;-82
2021/01/31 05:51:35;;;;;;;5.20;2.20;;;11.10;99.90;;;;;;4991531;28;20113;-78
2021/01/31 05:54:35;;;;;;;6.18;2.17;;;11.10;99.90;;;;;;4991876;28;20110;-82
2021/01/31 05:57:01;;;;;;;6.70;2.22;;;11.00;99.90;;;;;;4951223;28;20054;-81
2021/01/31 05:59:38;;;;;;;4.75;2.08;;;11.00;99.90;;;;;;4991893;28;20018;-83
2021/01/31 06:02:04;;;;;;;6.03;1.50;;;11.00;99.90;;;;;;4991359;28;20042;-83
2021/01/31 06:04:30;;;;;;;1.77;1.40;;;10.90;99.90;;;;;;4991519;28;20056;-79
2021/01/31 06:07:23;;;;;;;4.05;1.45;;;10.90;99.90;;;;;;4974678;28;20031;-81
2021/01/31 06:09:50;;;;;;;;;;;10.80;99.90;;;;;;4970779;28;20688;-85
2021/01/31 06:12:26;;;;;;;4.13;1.90;;;10.80;99.90;;;;;;4992289;28;19905;-82
2021/01/31 06:15:12;;;;;;;3.15;1.30;;;10.90;99.90;;;;;;4992424;28;20022;-81
2021/01/31 06:17:39;;;;;;;6.43;1.30;;;10.80;99.90;;;;;;4991208;28;20077;-80
2021/01/31 06:20:13;;;;;;;2.63;1.17;;;10.80;99.90;;;;;;4992127;28;20022;-84
2021/01/31 06:22:44;;;;;;;1.13;0.88;;;10.60;99.90;;;;;;4988241;28;20558;-81
2021/01/31 06:25:33;;;;;;;1.92;0.98;;;10.40;99.90;;;;;;4991231;28;20023;-82
2021/01/31 06:28:17;;;;;;;1.05;0.98;;;10.20;99.90;;;;;;4980784;28;20029;-80
2021/01/31 06:30:47;;;;;;;1.30;1.17;;;10.10;99.90;;;;;;4990758;28;20085;-85
2021/01/31 06:33:13;;;;;;;2.60;1.20;;;10.00;99.90;;;;;;4992091;28;20388;-85
2021/01/31 06:35:39;;;;;;;1.33;1.13;;;9.90;99.90;;;;;;4991349;28;20026;-82
2021/01/31 06:38:15;;;;;;;1.95;0.98;;;9.90;99.90;;;;;;4991549;28;20045;-83
2021/01/31 06:41:02;;;;;;;1.17;1.08;;;9.70;99.90;;;;;;4991200;28;20319;-82
2021/01/31 06:43:36;;;;;;;3.08;1.27;;;9.70;99.90;;;;;;4991286;28;20026;-81
2021/01/31 06:46:25;;;;;;;1.90;1.25;;;9.60;99.90;;;;;;4991661;28;20058;-82
2021/01/31 06:49:13;;;;;;;2.35;1.35;;;9.60;99.90;;;;;;4992221;28;20031;-84
2021/01/31 06:51:58;;;;;;;1.50;1.17;;;9.60;99.90;;;;;;4987199;28;20407;-82
2021/01/31 06:54:45;;;;;;;2.25;1.20;;;9.60;99.90;;;;;;4990928;28;20110;-83
2021/01/31 06:57:29;;;;;;;2.35;1.10;;;9.60;99.90;;;;;;4984780;28;20117;-83
2021/01/31 07:00:10;;;;;;;1.95;1.20;;;9.60;99.90;;;;;;4990917;28;20057;-79
2021/01/31 07:03:16;;;;;;;3.40;1.15;;;9.60;99.90;;;;;;4990465;28;20161;-82
2021/01/31 07:06:07;;;;;;;1.63;1.52;;;9.50;99.90;;;;;;4984064;28;20483;-82
2021/01/31 07:08:48;;;;;;;1.33;1.10;;;9.40;99.90;;;;;;4984130;28;20475;-79
2021/01/31 07:11:52;;;;;;;3.72;1.33;;;9.40;99.90;;;;;;4995066;28;20033;-82
2021/01/31 07:14:18;;;;;;;2.38;1.33;;;9.30;99.90;;;;;;4991260;28;20050;-81
2021/01/31 07:16:49;;;;;;;2.50;1.38;;;9.30;99.90;;;;;;4995015;28;20034;-83
2021/01/31 07:19:26;;;;;;;1.65;1.30;;;9.20;99.90;;;;;;4977911;28;20022;-83
2021/01/31 07:22:19;;;;;;;3.42;1.48;;;9.20;99.90;;;;;;4975087;28;20045;-83
2021/01/31 07:25:01;;;;;;;2.17;1.25;;;9.20;99.90;;;;;;4994787;28;20084;-82
2021/01/31 07:27:51;;;;;;;4.47;1.25;;;9.20;99.90;;;;;;4995036;28;20038;-82
2021/01/31 07:30:26;;;;;;;1.85;1.00;;;9.20;99.90;;;;;;4994141;28;20142;-84
2021/01/31 07:33:07;;;;;;;2.10;1.10;;;9.20;99.90;;;;;;4981912;28;20022;-79
2021/01/31 07:35:54;;;;;;;1.02;1.00;;;9.20;99.90;;;;;;4994836;28;20038;-82
2021/01/31 07:38:28;;;;;;;1.33;1.00;;;9.20;99.90;;;;;;4993885;28;20050;-78
2021/01/31 07:40:55;;;;;;;1.13;1.00;;;9.20;99.90;;;;;;4993853;28;20565;-82
2021/01/31 07:43:26;;;;;;;2.08;1.10;;;9.10;99.90;;;;;;4994173;28;20363;-82
2021/01/31 07:46:08;;;;;;;1.10;1.00;;;9.00;99.90;;;;;;4994773;28;20034;-81
2021/01/31 07:48:40;;;;;;;3.78;1.00;;;9.00;99.90;;;;;;4995013;28;20419;-81
2021/01/31 07:51:09;;;;;;;1.45;1.35;;;8.90;99.90;;;;;;4993792;28;20026;-83
2021/01/31 07:53:38;;;;;;;7.10;1.48;;;8.80;99.90;;;;;;4983526;28;20034;-78
2021/01/31 07:56:35;;;;;;;1.90;1.10;;;8.80;99.90;;;;;;4993259;28;20447;-83
2021/01/31 07:59:09;;;;;;;1.17;1.13;;;8.70;99.90;;;;;;4992596;28;20042;-82
2021/01/31 08:01:45;;;;;;;2.70;1.42;;;8.70;99.90;;;;;;4993212;28;20052;-85
2021/01/31 08:04:17;;;;;;;1.10;1.00;;;8.60;99.90;;;;;;4993716;28;20019;-81
2021/01/31 08:06:50;;;;;;;1.23;1.13;;;8.50;99.90;;;;;;4993202;28;20038;-83
2021/01/31 08:09:40;;;;;;;1.35;1.25;;;8.50;99.90;;;;;;4988893;28;20106;-83
2021/01/31 08:12:13;;;;;;;2.25;1.23;;;8.40;99.90;;;;;;4990599;28;20396;-83
2021/01/31 08:15:09;;;;;;;1.60;1.50;;;8.30;99.90;;;;;;4993981;28;20023;-80
2021/01/31 08:17:42;;;;;;;1.13;1.10;;;8.30;99.90;;;;;;4993457;28;20034;-81
2021/01/31 08:20:17;;;;;;;1.70;1.60;;;8.20;99.90;;;;;;4993369;28;20423;-82
2021/01/31 08:22:44;;;;;;;1.70;1.60;;;8.10;99.90;;;;;;4993052;28;20396;-82
2021/01/31 08:25:13;;;;;;;1.50;1.40;;;8.10;99.90;;;;;;4994484;28;20424;-83
2021/01/31 08:27:40;;;;;;;1.50;1.40;;;7.90;99.90;;;;;;4993965;28;20030;-81
2021/01/31 08:30:20;;;;;;;2.45;1.52;;;7.90;99.90;;;;;;4993893;28;20061;-83
2021/01/31 08:33:20;;;;;;;2.17;1.98;;;7.90;99.90;;;;;;4993103;28;20048;-80
2021/01/31 08:35:46;;;;;;;2.25;2.05;;;7.80;99.90;;;;;;4993204;28;20076;-81
2021/01/31 08:38:36;;;;;;;2.60;1.90;;;7.80;99.90;;;;;;4993269;28;20050;-81
2021/01/31 08:41:02;;;;;;;3.72;2.80;;;7.70;99.90;;;;;;4992911;28;20117;-79
2021/01/31 08:43:37;;;;;;;3.67;3.05;;;7.80;99.90;;;;;;4992613;28;20022;-80
2021/01/31 08:46:15;;;;;;;2.63;2.25;;;7.70;99.90;;;;;;4993253;28;20023;-83
2021/01/31 08:48:48;;;;;;;2.50;2.30;;;7.60;99.90;;;;;;4992916;28;20053;-83
2021/01/31 08:51:22;;;;;;;7.15;3.03;;;7.60;99.90;;;;;;4993558;28;20419;-78
2021/01/31 08:54:08;;;;;;;3.28;2.85;;;7.60;99.90;;;;;;4998070;28;20096;-76
2021/01/31 08:56:38;;;;;;;3.70;2.78;;;7.50;99.90;;;;;;4984607;28;20026;-79
2021/01/31 08:59:06;;;;;;;12.45;6.30;;;7.40;99.90;;;;;;4993876;28;20026;-77
2021/01/31 09:01:42;;;;;;;3.60;2.80;;;7.40;99.90;;;;;;4993014;28;20022;-77
2021/01/31 09:04:11;;;;;;;4.25;3.20;;;7.40;99.90;;;;;;4992194;28;20054;-79
2021/01/31 09:06:42;;;;;;;4.22;2.92;;;7.40;99.90;;;;;;4990421;28;20105;-83
2021/01/31 09:09:24;;;;;;;3.90;3.22;;;7.30;99.90;;;;;;4989878;28;20019;-82
2021/01/31 09:11:54;;;;;;;6.07;4.40;;;7.20;99.90;;;;;;4989549;28;20486;-81
2021/01/31 09:14:25;;;;;;;5.53;3.77;;;7.20;99.90;;;;;;4991784;28;20368;-82
2021/01/31 09:17:10;;;;;;;4.43;3.70;;;7.10;99.90;;;;;;4992245;28;20474;-83
2021/01/31 09:19:41;;;;;;;5.15;3.85;;;7.10;99.90;;;;;;4995046;28;20475;-79
2021/01/31 09:22:16;;;;;;;5.07;3.53;;;7.00;99.90;;;;;;4990349;28;20108;-81
2021/01/31 09:24:45;;;;;;;6.68;4.95;;;7.00;99.90;;;;;;4985941;28;20081;-81
2021/01/31 09:27:25;;;;;;;9.35;5.95;;;6.90;99.90;;;;;;4987805;28;20294;-85
2021/01/31 09:30:14;;;;;;;7.80;4.95;;;6.90;99.90;;;;;;4988725;28;20030;-82
2021/01/31 09:33:12;;;;;;;6.18;3.55;;;6.90;99.90;;;;;;4989126;28;20041;-84
2021/01/31 09:35:42;;;;;;;10.27;4.53;;;6.90;99.90;;;;;;4990108;28;20129;-83
2021/01/31 09:38:26;;;;;;;4.65;3.65;;;6.80;99.90;;;;;;4990807;28;20058;-85
2021/01/31 09:40:59;;;;;;;6.22;4.05;;;6.80;99.90;;;;;;4991166;28;20479;-82
2021/01/31 09:43:54;;;;;;;6.68;4.10;;;6.80;99.90;;;;;;4989636;28;20103;-80
2021/01/31 09:46:24;;;;;;;4.32;3.67;;;6.70;99.90;;;;;;4955127;28;20061;-83
2021/01/31 09:49:13;;;;;;;4.32;3.92;;;6.60;99.90;;;;;;4991879;28;20026;-84
2021/01/31 09:51:42;;;;;;;6.65;3.50;;;6.70;99.90;;;;;;4992213;28;20034;-83
2021/01/31 09:54:32;;;;;;;3.65;3.30;;;6.60;99.90;;;;;;4990845;28;20033;-85
2021/01/31 09:57:04;;;;;;;4.72;3.20;;;6.60;99.90;;;;;;4990453;28;20026;-81
2021/01/31 09:59:34;;;;;;;5.25;3.30;;;6.60;99.90;;;;;;4991443;28;20072;-82
2021/01/31 10:02:21;;;;;;;6.10;3.20;;;6.60;99.90;;;;;;4991727;28;20527;-84
2021/01/31 10:05:01;;;;;;;8.35;3.33;;;6.60;99.90;;;;;;4990178;28;20370;-84
2021/01/31 10:07:46;;;;;;;4.60;3.53;;;6.60;99.90;;;;;;4992591;28;20046;-81
2021/01/31 10:10:42;;;;;;;5.07;3.30;;;6.50;99.90;;;;;;4991689;28;20455;-82
2021/01/31 10:13:17;;;;;;;3.70;3.10;;;6.50;99.90;;;;;;4992227;28;20019;-79
2021/01/31 10:15:49;;;;;;;4.32;3.42;;;6.60;99.90;;;;;;4991712;28;20061;-81
2021/01/31 10:18:27;;;;;;;4.78;3.53;;;6.50;99.90;;;;;;4992413;28;20094;-80
2021/01/31 10:21:28;;;;;;;6.95;5.18;;;6.50;99.90;;;;;;4989700;28;20033;-81
2021/01/31 10:24:30;;;;;;;7.72;4.72;;;6.50;99.90;;;;;;4989916;28;20356;-80
2021/01/31 10:27:26;;;;;;;;;;;6.50;99.90;;;;;;4979541;28;20042;-79
2021/01/31 10:29:53;;;;;;;10.10;3.72;;;6.50;99.90;;;;;;4983492;28;20340;-82
2021/01/31 10:32:30;;;;;;;3.83;3.15;;;6.50;99.90;;;;;;4991538;28;20022;-80
2021/01/31 10:35:02;;;;;;;4.65;3.42;;;6.50;99.90;;;;;;4991312;28;20507;-81
2021/01/31 10:37:40;;;;;;;4.18;3.40;;;6.50;99.90;;;;;;4991970;28;20046;-82
2021/01/31 10:40:15;;;;;;;4.10;3.70;;;6.50;99.90;;;;;;4993448;28;20027;-82
2021/01/31 10:42:43;;;;;;;4.03;3.33;;;6.50;99.90;;;;;;4994200;28;20472;-81
2021/01/31 10:45:20;;;;;;;4.45;3.30;;;6.40;99.90;;;;;;4996506;28;20050;-82
2021/01/31 10:47:52;;;;;;;5.47;3.80;;;6.40;99.90;;;;;;4995908;28;20105;-81
2021/01/31 10:50:20;;;;;;;5.07;3.45;;;6.40;99.90;;;;;;4996408;28;20030;-81
2021/01/31 10:52:48;;;;;;;4.53;3.67;;;6.40;99.90;;;;;;4978421;28;20030;-81
2021/01/31 10:55:17;;;;;;;4.90;4.18;;;6.30;99.90;;;;;;4995292;28;20068;-81
2021/01/31 10:57:44;;;;;;;5.15;4.00;;;6.30;99.90;;;;;;4995446;28;20606;-81
2021/01/31 11:00:12;;;;;;;4.45;3.60;;;6.30;99.90;;;;;;4995222;28;20109;-81
2021/01/31 11:03:06;;;;;;;4.75;4.00;;;6.30;99.90;;;;;;4994733;28;20042;-80
2021/01/31 11:05:33;;;;;;;5.75;4.22;;;6.30;99.90;;;;;;4994459;28;20112;-81
2021/01/31 11:08:24;;;;;;;7.78;3.90;;;6.40;99.90;;;;;;4995360;28;20434;-81
2021/01/31 11:11:46;;;;;;;4.80;3.78;;;6.40;99.90;;;;;;4984666;28;20027;-80
2021/01/31 11:14:02;;;;;;;5.72;4.10;;;6.40;99.90;;;;;;4926269;29;20047;-81
2021/01/31 11:16:29;;;;;;;5.00;4.32;;;6.40;99.90;;;;;;4935761;29;20024;-81
2021/01/31 11:19:10;;;;;;;6.53;4.25;;;6.40;99.90;;;;;;4976929;28;20570;-80
2021/01/31 11:21:56;;;;;;;5.57;3.70;;;6.40;99.90;;;;;;4994764;28;20399;-81
2021/01/31 11:24:25;;;;;;;3.72;3.40;;;6.40;99.90;;;;;;4994002;28;20030;-81
2021/01/31 11:26:50;;;;;;;6.05;4.07;;;6.40;99.90;;;;;;4994772;28;20030;-79
2021/01/31 11:29:16;;;;;;;6.15;4.25;;;6.40;99.90;;;;;;4994593;28;20077;-81
2021/01/31 11:31:42;;;;;;;3.70;3.33;;;6.50;99.90;;;;;;4977098;28;20036;-83
2021/01/31 11:34:11;;;;;;;5.38;4.25;;;6.50;99.90;;;;;;4993816;28;20084;-80
2021/01/31 11:36:45;;;;;;;4.68;3.88;;;6.50;99.90;;;;;;4993849;28;20050;-81
2021/01/31 11:39:16;;;;;;;8.63;5.35;;;6.50;99.90;;;;;;4992149;28;20065;-82
2021/01/31 11:41:49;;;;;;;5.72;4.70;;;6.50;99.90;;;;;;4990529;28;20449;-81
2021/01/31 11:44:24;;;;;;;9.25;5.80;;;6.60;99.90;;;;;;4992878;28;20352;-81
2021/01/31 11:47:09;;;;;;;8.07;5.57;;;6.50;99.90;;;;;;4993593;28;20030;-80
2021/01/31 11:49:52;;;;;;;25.73;6.22;;;6.50;99.90;;;;;;4993900;28;20042;-81
2021/01/31 11:52:20;;;;;;;6.70;4.95;;;6.40;99.90;;;;;;4992681;28;20036;-79
2021/01/31 11:55:05;;;;;;;9.73;5.70;;;6.40;99.90;;;;;;4993449;28;20073;-81
2021/01/31 11:57:32;;;;;;;7.38;4.80;;;6.40;99.90;;;;;;4992758;28;20030;-81
2021/01/31 12:00:11;;;;;;;7.85;5.20;;;6.40;99.90;;;;;;4993911;28;20023;-80
2021/01/31 12:02:37;;;;;;;5.47;4.03;;;6.30;99.90;;;;;;4993458;28;20038;-80
2021/01/31 12:05:06;;;;;;;8.43;5.10;;;6.40;99.90;;;;;;4993531;28;20023;-79
2021/01/31 12:07:46;;;;;;;6.07;4.70;;;6.40;99.90;;;;;;4993476;28;20034;-81
2021/01/31 12:10:51;;;;;;;7.80;4.28;;;6.30;99.90;;;;;;4993113;28;20540;-79
2021/01/31 12:13:21;;;;;;;5.28;4.05;;;6.30;99.90;;;;;;4974889;28;20125;-78
2021/01/31 12:16:08;;;;;;;6.65;4.03;;;6.30;99.90;;;;;;4992615;28;20024;-80
2021/01/31 12:18:49;;;;;;;6.05;4.13;;;6.40;99.90;;;;;;4993133;28;20483;-80
2021/01/31 12:21:15;;;;;;;10.30;4.80;;;6.40;99.90;;;;;;4993586;28;20062;-79
2021/01/31 12:24:12;;;;;;;5.32;4.00;;;6.40;99.90;;;;;;4993446;28;20579;-79
2021/01/31 12:26:44;;;;;;;7.63;4.57;;;6.30;99.90;;;;;;4993520;28;20037;-79
2021/01/31 12:29:27;;;;;;;7.43;4.70;;;6.30;99.90;;;;;;4993506;28;20375;-80
2021/01/31 12:32:15;;;;;;;7.53;4.90;;;6.30;99.90;;;;;;4990235;28;20415;-80
2021/01/31 12:35:00;;;;;;;6.38;5.03;;;6.30;99.90;;;;;;4984957;28;20050;-79
2021/01/31 12:37:38;;;;;;;7.40;4.80;;;6.30;99.90;;;;;;4989958;28;20475;-80
2021/01/31 12:40:07;;;;;;;7.13;4.90;;;6.30;99.90;;;;;;4992103;28;20089;-80
2021/01/31 12:42:59;;;;;;;8.98;6.18;;;6.30;99.90;;;;;;4991647;28;20038;-80
2021/01/31 12:45:29;;;;;;;7.32;5.03;;;6.30;99.90;;;;;;4991956;28;20049;-80
2021/01/31 12:47:55;;;;;;;6.95;5.20;;;6.30;99.90;;;;;;4992406;28;20388;-81
2021/01/31 12:50:32;;;;;;;5.47;4.32;;;6.20;99.90;;;;;;4992623;28;20018;-81
2021/01/31 12:53:10;;;;;;;8.57;5.07;;;6.30;99.90;;;;;;4991893;28;20022;-80
2021/01/31 12:55:58;;;;;;;;;;;;;;;;;;;;;
2021/01/31 12:58:28;;;;;;;7.60;5.07;;;6.30;99.90;;;;;;4991138;28;20030;-81
2021/01/31 13:00:58;;;;;;;7.07;4.80;;;6.30;99.90;;;;;;4992488;28;20129;-80
2021/01/31 13:03:27;;;;;;;6.40;4.32;;;6.30;99.90;;;;;;4991651;28;20037;-79
2021/01/31 13:06:05;;;;;;;8.45;5.60;;;6.20;99.90;;;;;;4992756;28;20018;-80
2021/01/31 13:08:43;;;;;;;8.18;5.30;;;6.30;99.90;;;;;;4990356;28;20479;-81
2021/01/31 13:11:08;;;;;;;7.95;5.55;;;6.30;99.90;;;;;;4991684;28;20033;-80
2021/01/31 13:13:37;;;;;;;8.68;6.28;;;6.20;99.90;;;;;;4990421;28;20038;-79
2021/01/31 13:16:10;;;;;;;7.38;5.55;;;6.30;99.90;;;;;;4986848;28;20023;-79
2021/01/31 13:18:39;;;;;;;8.48;5.57;;;6.30;99.90;;;;;;4991157;28;20395;-78
2021/01/31 13:21:08;;;;;;;6.28;4.75;;;6.30;99.90;;;;;;4991848;28;20506;-81
2021/01/31 13:23:37;;;;;;;6.13;4.75;;;6.30;99.90;;;;;;4991353;28;20566;-81
2021/01/31 13:26:03;;;;;;;8.40;5.20;;;6.40;99.90;;;;;;4990872;28;20425;-79
2021/01/31 13:28:29;;;;;;;7.13;5.22;;;6.30;99.90;;;;;;4990965;28;20109;-80
2021/01/31 13:30:58;;;;;;;8.43;5.32;;;6.20;99.90;;;;;;4988891;28;20099;-80
2021/01/31 13:33:29;;;;;;;8.25;5.55;;;6.20;99.90;;;;;;4990976;28;20053;-80
2021/01/31 13:36:06;;;;;;;8.00;5.57;;;6.20;99.90;;;;;;4986615;28;20069;-79
2021/01/31 13:38:41;;;;;;;9.65;6.05;;;6.20;99.90;;;;;;4989961;28;20029;-80
2021/01/31 13:43:59;;;;;;;6.88;5.30;;;6.10;99.90;;;;;;4948820;28;20096;-80
2021/01/31 13:46:25;;;;;;;10.95;6.60;;;6.10;99.90;;;;;;4991201;28;20025;-79
2021/01/31 13:49:01;;;;;;;8.38;5.50;;;6.20;99.90;;;;;;4973925;28;20030;-80
2021/01/31 13:51:39;;;;;;;;;;;;;;;;;;;;;